createdAt,value
2022-09-21T00:04:02.461Z,6.90
2022-09-21T00:06:31.618Z,6.80
2022-09-21T00:08:58.849Z,6.80
2022-09-21T00:11:28.672Z,6.80
2022-09-21T00:14:00.786Z,6.80
2022-09-21T00:16:28.234Z,6.70
2022-09-21T00:18:55.353Z,6.70
2022-09-21T00:21:22.330Z,6.60
2022-09-21T00:23:49.190Z,6.60
2022-09-21T00:26:21.783Z,6.60
2022-09-21T00:28:54.515Z,6.50
2022-09-21T00:31:21.704Z,6.50
2022-09-21T00:33:48.834Z,6.50
2022-09-21T00:36:17.445Z,6.50
2022-09-21T00:38:46.188Z,6.50
2022-09-21T00:41:13.340Z,6.60
2022-09-21T00:43:47.711Z,6.50
2022-09-21T00:46:30.872Z,6.50
2022-09-21T00:48:58.475Z,6.50
2022-09-21T00:51:25.876Z,6.50
2022-09-21T00:53:59.980Z,6.50
2022-09-21T00:56:27.096Z,6.50
2022-09-21T00:58:55.118Z,6.50
2022-09-21T01:01:22.262Z,6.60
2022-09-21T01:03:51.318Z,6.60
2022-09-21T01:06:20.609Z,6.50
2022-09-21T01:08:52.653Z,6.50
2022-09-21T01:11:56.894Z,6.50
2022-09-21T01:14:50.664Z,6.50
2022-09-21T01:17:39.106Z,6.40
2022-09-21T01:20:36.800Z,6.40
2022-09-21T01:23:16.332Z,6.40
2022-09-21T01:26:01.609Z,6.40
2022-09-21T01:29:01.383Z,6.30
2022-09-21T01:31:36.276Z,6.30
2022-09-21T01:34:10.145Z,6.20
2022-09-21T01:36:38.087Z,6.20
2022-09-21T01:39:13.031Z,6.10
2022-09-21T01:41:42.433Z,6.10
2022-09-21T01:44:14.653Z,6.10
2022-09-21T01:46:42.497Z,6.10
2022-09-21T01:49:13.381Z,6.10
2022-09-21T01:51:48.409Z,6.10
2022-09-21T01:54:22.355Z,6.10
2022-09-21T01:56:59.964Z,6.10
2022-09-21T01:59:37.469Z,6.00
2022-09-21T02:02:11.511Z,6.00
2022-09-21T02:04:39.607Z,6.00
2022-09-21T02:07:07.825Z,6.00
2022-09-21T02:09:36.846Z,6.00
2022-09-21T02:12:05.476Z,5.90
2022-09-21T02:14:33.397Z,5.90
2022-09-21T02:17:07.708Z,5.90
2022-09-21T02:19:40.155Z,6.00
2022-09-21T02:22:30.756Z,5.90
2022-09-21T02:25:15.616Z,5.90
2022-09-21T02:28:17.886Z,5.90
2022-09-21T02:30:53.499Z,5.80
2022-09-21T02:33:28.695Z,5.90
2022-09-21T02:36:01.297Z,5.90
2022-09-21T02:38:33.665Z,5.90
2022-09-21T02:41:25.464Z,5.90
2022-09-21T02:44:23.478Z,5.80
2022-09-21T02:47:03.109Z,5.80
2022-09-21T02:49:36.752Z,5.70
2022-09-21T02:52:12.588Z,5.70
2022-09-21T02:54:41.875Z,5.70
2022-09-21T02:57:09.145Z,5.70
2022-09-21T02:59:35.964Z,5.70
2022-09-21T03:02:02.718Z,5.70
2022-09-21T03:04:29.375Z,5.70
2022-09-21T03:06:57.033Z,5.60
2022-09-21T03:09:24.547Z,5.60
2022-09-21T03:11:51.729Z,5.60
2022-09-21T03:14:19.139Z,5.60
2022-09-21T03:16:45.799Z,5.60
2022-09-21T03:19:12.512Z,5.60
2022-09-21T03:21:43.755Z,5.60
2022-09-21T03:24:11.168Z,5.60
2022-09-21T03:26:37.756Z,5.60
2022-09-21T03:29:04.716Z,5.70
2022-09-21T03:31:32.054Z,5.60
2022-09-21T03:33:58.740Z,5.60
2022-09-21T03:36:25.477Z,5.60
2022-09-21T03:38:52.021Z,5.60
2022-09-21T03:41:18.860Z,5.60
2022-09-21T03:43:45.610Z,5.50
2022-09-21T03:46:12.490Z,5.50
2022-09-21T03:48:40.634Z,5.50
2022-09-21T03:51:07.235Z,5.50
2022-09-21T03:53:33.906Z,5.40
2022-09-21T03:56:00.639Z,5.40
2022-09-21T03:58:27.297Z,5.50
2022-09-21T04:00:54.427Z,5.40
2022-09-21T04:03:21.004Z,5.40
2022-09-21T04:05:47.596Z,5.50
2022-09-21T04:08:14.164Z,5.40
2022-09-21T04:10:42.668Z,5.40
2022-09-21T04:13:09.242Z,5.50
2022-09-21T04:15:36.584Z,5.40
2022-09-21T04:18:03.183Z,5.40
2022-09-21T04:20:29.777Z,5.50
2022-09-21T04:22:56.439Z,5.50
2022-09-21T04:25:23.111Z,5.50
2022-09-21T04:27:49.763Z,5.50
2022-09-21T04:30:16.920Z,5.50
2022-09-21T04:32:43.964Z,5.60
2022-09-21T04:35:11.102Z,5.60
2022-09-21T04:37:37.947Z,5.60
2022-09-21T04:40:05.692Z,5.70
2022-09-21T04:42:32.761Z,5.70
2022-09-21T04:44:59.485Z,5.80
2022-09-21T04:47:26.391Z,5.80
2022-09-21T04:49:53.477Z,5.80
2022-09-21T04:52:20.460Z,5.70
2022-09-21T04:54:47.632Z,5.70
2022-09-21T04:57:14.824Z,5.70
2022-09-21T04:59:41.487Z,5.70
2022-09-21T05:02:08.144Z,5.70
2022-09-21T05:04:34.748Z,5.70
2022-09-21T05:07:01.426Z,5.70
2022-09-21T05:09:46.642Z,5.70
2022-09-21T05:12:13.320Z,5.70
2022-09-21T05:14:40.941Z,5.70
2022-09-21T05:17:08.023Z,5.80
2022-09-21T05:19:34.677Z,5.80
2022-09-21T05:22:01.337Z,5.90
2022-09-21T05:24:46.834Z,5.90
2022-09-21T08:45:35.701Z,13.50
2022-09-21T08:48:10.834Z,14.00
2022-09-21T08:50:39.427Z,14.10
2022-09-21T08:53:36.721Z,14.00
2022-09-21T08:56:03.790Z,14.10
2022-09-21T08:58:32.739Z,14.30
2022-09-21T09:01:19.846Z,14.50
2022-09-21T09:04:05.970Z,14.50
2022-09-21T09:06:51.377Z,14.60
2022-09-21T09:09:50.540Z,14.70
2022-09-21T09:12:34.053Z,14.70
2022-09-21T09:15:25.877Z,14.70
2022-09-21T09:18:10.392Z,14.70
2022-09-21T09:20:39.759Z,14.60
2022-09-21T09:23:51.135Z,14.50
2022-09-21T09:26:35.423Z,14.30
2022-09-21T09:29:10.208Z,14.70
2022-09-21T09:31:38.852Z,14.90
2022-09-21T09:34:36.340Z,15.00
2022-09-21T09:37:12.302Z,15.40
2022-09-21T09:39:41.260Z,15.60
2022-09-21T09:42:25.954Z,15.30
2022-09-21T09:45:11.722Z,15.30
2022-09-21T09:48:03.316Z,15.40
2022-09-21T09:50:37.051Z,15.30
2022-09-21T09:53:10.487Z,15.20
2022-09-21T09:55:43.634Z,15.10
2022-09-21T09:58:23.966Z,14.90
2022-09-21T10:00:55.364Z,14.90
2022-09-21T10:03:26.886Z,14.90
2022-09-21T10:05:54.530Z,14.80
2022-09-21T10:08:43.584Z,14.90
2022-09-21T10:11:15.427Z,14.80
2022-09-21T10:13:44.740Z,14.80
2022-09-21T10:16:22.493Z,14.70
2022-09-21T10:19:01.592Z,14.70
2022-09-21T10:21:39.587Z,14.70
2022-09-21T10:24:16.225Z,14.70
2022-09-21T10:26:56.080Z,14.80
2022-09-21T10:29:22.610Z,14.90
2022-09-21T10:32:02.910Z,15.00
2022-09-21T10:34:31.814Z,15.30
2022-09-21T10:37:05.913Z,15.60
2022-09-21T10:39:33.138Z,15.90
2022-09-21T10:42:06.416Z,15.80
2022-09-21T10:44:43.305Z,15.70
2022-09-21T10:47:33.033Z,15.60
2022-09-21T10:50:02.899Z,15.40
2022-09-21T10:52:40.000Z,15.20
2022-09-21T10:55:15.242Z,15.00
2022-09-21T10:57:43.303Z,15.00
2022-09-21T11:00:21.808Z,15.10
2022-09-21T11:02:48.569Z,15.20
2022-09-21T11:05:22.762Z,15.60
2022-09-21T11:08:19.211Z,16.30
2022-09-21T11:11:17.740Z,17.10
2022-09-21T11:14:00.968Z,17.10
2022-09-21T11:16:58.048Z,16.70
2022-09-21T11:19:38.543Z,16.70
2022-09-21T11:22:57.741Z,16.30
2022-09-21T11:25:47.752Z,16.80
2022-09-21T11:28:33.473Z,17.80
2022-09-21T11:31:14.911Z,18.10
2022-09-21T11:33:57.214Z,17.80
2022-09-21T11:36:56.483Z,17.50
2022-09-21T11:39:44.780Z,17.60
2022-09-21T11:42:53.513Z,17.30
2022-09-21T11:45:50.997Z,17.00
2022-09-21T11:48:28.865Z,16.70
2022-09-21T11:51:38.248Z,16.60
2022-09-21T11:54:21.468Z,16.40
2022-09-21T11:57:05.579Z,16.20
2022-09-21T12:00:00.377Z,16.20
2022-09-21T12:02:33.801Z,16.40
2022-09-21T12:05:06.117Z,16.50
2022-09-21T12:07:50.951Z,16.70
2022-09-21T12:10:32.750Z,17.00
2022-09-21T12:13:18.200Z,16.90
2022-09-21T12:16:16.496Z,16.70
2022-09-21T12:18:55.863Z,17.40
2022-09-21T12:21:34.031Z,18.50
2022-09-21T12:24:12.156Z,19.20
2022-09-21T12:26:50.845Z,19.30
2022-09-21T12:29:28.809Z,19.30
2022-09-21T12:32:07.944Z,19.40
2022-09-21T12:34:41.850Z,19.40
2022-09-21T12:37:23.788Z,19.00
2022-09-21T12:40:05.466Z,19.40
2022-09-21T12:42:54.967Z,19.40
2022-09-21T12:45:29.733Z,19.80
2022-09-21T12:48:19.949Z,20.30
2022-09-21T12:50:55.068Z,20.10
2022-09-21T12:53:26.094Z,19.70
2022-09-21T12:56:21.831Z,19.80
2022-09-21T12:59:19.727Z,19.50
2022-09-21T13:02:13.080Z,19.30
2022-09-21T13:04:50.338Z,19.20
2022-09-21T13:07:49.693Z,19.10
2022-09-21T13:10:31.508Z,19.10
2022-09-21T13:13:02.853Z,18.90
2022-09-21T13:15:30.780Z,18.40
2022-09-21T13:18:06.529Z,18.00
2022-09-21T13:20:36.387Z,17.40
2022-09-21T13:23:03.304Z,17.30
2022-09-21T13:25:34.915Z,17.30
2022-09-21T13:28:04.431Z,17.10
2022-09-21T13:30:33.268Z,17.00
2022-09-21T13:33:01.740Z,17.10
2022-09-21T13:35:47.868Z,17.10
2022-09-21T13:38:44.852Z,17.10
2022-09-21T13:41:17.416Z,17.10
2022-09-21T13:43:54.774Z,16.80
2022-09-21T13:46:36.604Z,16.70
2022-09-21T13:49:15.394Z,16.50
2022-09-21T13:52:22.565Z,16.40
2022-09-21T13:54:53.584Z,16.40
2022-09-21T13:57:32.042Z,16.30
2022-09-21T14:00:19.946Z,16.70
2022-09-21T14:02:54.881Z,17.00
2022-09-21T14:05:41.805Z,17.00
2022-09-21T14:08:14.614Z,16.80
2022-09-21T14:10:48.906Z,16.60
2022-09-21T14:13:59.668Z,16.40
2022-09-21T14:16:29.146Z,16.20
2022-09-21T14:18:56.296Z,16.00
2022-09-21T14:21:23.267Z,16.30
2022-09-21T14:24:22.795Z,16.80
2022-09-21T14:26:59.565Z,17.30
2022-09-21T14:29:47.029Z,17.80
2022-09-21T14:32:23.321Z,18.10
2022-09-21T14:34:53.777Z,18.00
2022-09-21T14:37:30.824Z,17.80
2022-09-21T14:40:00.932Z,17.60
2022-09-21T14:42:29.132Z,17.50
2022-09-21T14:45:02.289Z,17.20
2022-09-21T14:47:54.489Z,17.00
2022-09-21T14:50:28.966Z,16.70
2022-09-21T14:53:10.092Z,16.40
2022-09-21T14:56:24.453Z,16.10
2022-09-21T14:59:23.065Z,15.90
2022-09-21T15:02:07.030Z,15.70
2022-09-21T15:04:48.471Z,15.60
2022-09-21T15:07:47.015Z,15.50
2022-09-21T15:10:46.209Z,15.40
2022-09-21T15:13:42.522Z,15.30
2022-09-21T15:16:34.772Z,15.30
2022-09-21T15:19:28.829Z,15.30
2022-09-21T15:22:16.615Z,15.40
2022-09-21T15:24:57.966Z,15.60
2022-09-21T15:27:33.393Z,15.80
2022-09-21T15:30:04.769Z,15.80
2022-09-21T15:32:46.560Z,15.80
2022-09-21T15:35:23.982Z,15.80
2022-09-21T15:37:51.787Z,15.70
2022-09-21T15:40:20.692Z,15.60
2022-09-21T15:43:16.917Z,15.50
2022-09-21T15:46:03.397Z,15.40
2022-09-21T15:48:34.570Z,15.20
2022-09-21T15:51:07.528Z,15.10
2022-09-21T15:53:42.739Z,15.10
2022-09-21T15:56:20.621Z,15.00
2022-09-21T15:58:49.937Z,14.80
2022-09-21T16:01:21.614Z,14.80
2022-09-21T16:03:51.941Z,14.80
2022-09-21T16:06:21.721Z,14.70
2022-09-21T16:08:48.482Z,14.70
2022-09-21T16:11:35.857Z,14.70
2022-09-21T16:14:29.640Z,14.70
2022-09-21T16:17:17.610Z,14.60
2022-09-21T16:19:56.574Z,14.60
2022-09-21T16:22:39.431Z,14.60
2022-09-21T16:25:29.887Z,14.60
2022-09-21T16:27:59.165Z,14.50
2022-09-21T16:30:44.778Z,14.50
2022-09-21T16:33:41.304Z,14.40
2022-09-21T16:36:34.186Z,14.30
2022-09-21T16:39:12.797Z,14.30
2022-09-21T16:41:47.496Z,14.30
2022-09-21T16:44:22.990Z,14.20
2022-09-21T16:47:01.597Z,14.10
2022-09-21T16:49:32.624Z,14.00
2022-09-21T16:51:59.732Z,14.00
2022-09-21T16:54:27.287Z,13.90
2022-09-21T16:57:00.063Z,13.90
2022-09-21T16:59:27.630Z,13.80
2022-09-21T17:02:22.105Z,13.60
2022-09-21T17:04:53.035Z,13.60
2022-09-21T17:07:22.827Z,13.50
2022-09-21T17:09:51.398Z,13.40
2022-09-21T17:12:18.952Z,13.40
2022-09-21T17:14:47.332Z,13.30
2022-09-21T17:17:25.991Z,13.30
2022-09-21T17:19:55.660Z,13.30
2022-09-21T17:22:32.853Z,13.20
2022-09-21T17:25:00.713Z,13.30
2022-09-21T17:27:31.897Z,13.20
2022-09-21T17:30:03.286Z,13.20
2022-09-21T17:32:30.069Z,13.20
2022-09-21T17:35:35.977Z,13.20
2022-09-21T17:38:02.757Z,13.30
2022-09-21T17:40:33.321Z,13.20
2022-09-21T17:43:13.688Z,13.20
2022-09-21T17:45:43.585Z,13.20
2022-09-21T17:48:18.073Z,13.20
2022-09-21T17:50:44.942Z,13.20
2022-09-21T17:53:30.365Z,13.10
2022-09-21T17:55:58.855Z,13.10
2022-09-21T17:58:47.562Z,13.10
2022-09-21T18:01:29.150Z,13.10
2022-09-21T18:03:57.642Z,13.10
2022-09-21T18:06:24.520Z,13.10
2022-09-21T18:08:51.607Z,13.10
2022-09-21T18:11:24.795Z,13.10
2022-09-21T18:14:39.825Z,13.10
2022-09-21T18:17:32.850Z,13.10
2022-09-21T18:20:07.728Z,13.10
2022-09-21T18:23:04.391Z,13.10
2022-09-21T18:25:47.655Z,13.00
2022-09-21T18:28:39.683Z,13.00
2022-09-21T18:31:29.391Z,12.90
2022-09-21T18:34:15.605Z,12.80
2022-09-21T18:36:52.519Z,12.80
2022-09-21T18:39:43.391Z,12.70
2022-09-21T18:42:39.948Z,12.60
2022-09-21T18:45:21.160Z,12.60
2022-09-21T18:48:34.661Z,12.60
2022-09-21T18:51:33.975Z,12.50
2022-09-21T18:54:01.352Z,12.50
2022-09-21T18:56:34.789Z,12.50
2022-09-21T18:59:02.776Z,12.40
2022-09-21T19:01:32.925Z,12.40
2022-09-21T19:04:01.315Z,12.40
2022-09-21T19:06:49.820Z,12.40
2022-09-21T19:09:25.267Z,12.30
2022-09-21T19:12:10.763Z,12.20
2022-09-21T19:15:06.066Z,12.10
2022-09-21T19:17:54.189Z,12.00
2022-09-21T19:20:52.003Z,11.90
2022-09-21T19:23:49.539Z,11.80
2022-09-21T19:26:28.998Z,11.70
2022-09-21T19:29:18.996Z,11.60
2022-09-21T19:31:45.676Z,11.50
2022-09-21T19:34:15.942Z,11.50
2022-09-21T19:36:45.006Z,11.40
2022-09-21T19:39:12.306Z,11.40
2022-09-21T19:41:47.717Z,11.30
2022-09-21T19:44:39.755Z,11.30
2022-09-21T19:47:27.176Z,11.20
2022-09-21T19:49:54.998Z,11.10
2022-09-21T19:52:34.804Z,11.10
2022-09-21T19:55:20.233Z,11.00
2022-09-21T19:58:05.786Z,11.00
2022-09-21T20:00:32.579Z,10.90
2022-09-21T20:03:05.677Z,10.90
2022-09-21T20:05:38.375Z,10.90
2022-09-21T20:08:38.524Z,10.90
2022-09-21T20:11:21.081Z,10.90
2022-09-21T20:14:07.842Z,10.80
2022-09-21T20:17:00.932Z,10.80
2022-09-21T20:19:49.994Z,10.70
2022-09-21T20:22:19.618Z,10.70
2022-09-21T20:24:56.677Z,10.60
2022-09-21T20:27:34.853Z,10.60
2022-09-21T20:30:03.208Z,10.60
2022-09-21T20:32:30.544Z,10.60
2022-09-21T20:34:57.370Z,10.60
2022-09-21T20:37:24.608Z,10.50
2022-09-21T20:39:51.305Z,10.60
2022-09-21T20:42:23.654Z,10.60
2022-09-21T20:44:53.890Z,10.60
2022-09-21T20:47:20.961Z,10.50
2022-09-21T20:49:48.397Z,10.50
2022-09-21T20:52:16.779Z,10.50
2022-09-21T20:54:49.341Z,10.50
2022-09-21T20:57:17.382Z,10.50
2022-09-21T20:59:44.530Z,10.50
2022-09-21T21:02:13.134Z,10.40
2022-09-21T21:04:40.315Z,10.50
2022-09-21T21:07:07.466Z,10.50
2022-09-21T21:09:34.293Z,10.50
2022-09-21T21:12:01.121Z,10.50
2022-09-21T21:14:28.457Z,10.50
2022-09-21T21:16:55.128Z,10.50
2022-09-21T21:19:21.787Z,10.60
2022-09-21T21:21:48.460Z,10.50
2022-09-21T21:24:33.721Z,10.50
2022-09-21T21:27:02.893Z,10.50
2022-09-21T21:29:30.900Z,10.50
2022-09-21T21:31:59.091Z,10.50
2022-09-21T21:34:26.336Z,10.60
2022-09-21T21:36:53.496Z,10.60
2022-09-21T21:39:20.164Z,10.60
2022-09-21T21:41:47.022Z,10.60
2022-09-21T21:44:13.772Z,10.60
2022-09-21T21:46:40.376Z,10.60
2022-09-21T21:49:07.192Z,10.50
2022-09-21T21:51:33.867Z,10.60
2022-09-21T21:54:00.561Z,10.50
2022-09-21T21:56:27.188Z,10.50
2022-09-21T21:58:57.521Z,10.50
2022-09-21T22:01:29.271Z,10.50
2022-09-21T22:04:01.033Z,10.50
2022-09-21T22:06:29.425Z,10.50
2022-09-21T22:08:56.922Z,10.50
2022-09-21T22:11:25.065Z,10.50
2022-09-21T22:13:53.789Z,10.50
2022-09-21T22:16:22.941Z,10.50
2022-09-21T22:18:50.843Z,10.50
2022-09-21T22:21:23.488Z,10.50
2022-09-21T22:23:58.480Z,10.40
2022-09-21T22:26:26.705Z,10.50
2022-09-21T22:28:56.868Z,10.40
2022-09-21T22:31:28.791Z,10.40
2022-09-21T22:33:55.893Z,10.30
2022-09-21T22:36:24.590Z,10.30
2022-09-21T22:38:51.299Z,10.30
2022-09-21T22:41:21.084Z,10.20
2022-09-21T22:43:48.953Z,10.20
2022-09-21T22:46:18.748Z,10.20
2022-09-21T22:48:45.715Z,10.10
2022-09-21T22:51:16.934Z,10.10
2022-09-21T22:53:44.272Z,10.10
2022-09-21T22:56:15.936Z,10.00
2022-09-21T22:58:48.551Z,10.00
2022-09-21T23:01:30.618Z,10.00
2022-09-21T23:04:00.252Z,10.00
2022-09-21T23:06:29.351Z,9.90
2022-09-21T23:08:57.276Z,9.90
2022-09-21T23:11:27.087Z,9.80
2022-09-21T23:13:55.519Z,9.90
2022-09-21T23:16:23.699Z,9.80
2022-09-21T23:18:51.019Z,9.70
2022-09-21T23:21:20.486Z,9.70
2022-09-21T23:23:47.756Z,9.70
2022-09-21T23:26:20.508Z,9.70
2022-09-21T23:28:55.626Z,9.70
2022-09-21T23:31:23.626Z,9.70
2022-09-21T23:33:52.430Z,9.70
2022-09-21T23:36:25.343Z,9.70
2022-09-21T23:38:52.308Z,9.70
2022-09-21T23:41:24.349Z,9.60
2022-09-21T23:43:51.736Z,9.60
2022-09-21T23:46:21.072Z,9.60
2022-09-21T23:48:48.440Z,9.60
2022-09-21T23:51:15.111Z,9.50
2022-09-21T23:53:42.560Z,9.50
2022-09-21T23:56:13.610Z,9.40
2022-09-21T23:58:40.385Z,9.40
